createdAt,value
2022-12-25T00:02:02.106Z,7.68
2022-12-25T00:04:28.492Z,7.57
2022-12-25T00:06:54.836Z,7.48
2022-12-25T00:09:21.403Z,7.59
2022-12-25T00:11:47.781Z,7.46
2022-12-25T00:14:14.152Z,7.30
2022-12-25T00:16:41.914Z,7.14
2022-12-25T00:19:08.331Z,7.14
2022-12-25T00:21:34.688Z,7.24
2022-12-25T00:24:01.136Z,7.30
2022-12-25T00:26:27.868Z,7.17
2022-12-25T00:28:56.067Z,7.43
2022-12-25T00:31:23.739Z,7.00
2022-12-25T00:33:52.294Z,7.18
2022-12-25T00:36:20.790Z,7.42
2022-12-25T00:38:47.687Z,7.28
2022-12-25T00:41:16.371Z,7.53
2022-12-25T00:43:43.360Z,7.56
2022-12-25T00:46:11.895Z,7.38
2022-12-25T00:48:38.720Z,7.40
2022-12-25T00:51:08.516Z,7.17
2022-12-25T00:53:34.907Z,7.04
2022-12-25T00:56:03.294Z,6.96
2022-12-25T00:58:31.931Z,6.96
2022-12-25T01:00:58.520Z,7.25
2022-12-25T01:03:25.612Z,7.32
2022-12-25T01:05:57.919Z,7.40
2022-12-25T01:08:26.153Z,7.30
2022-12-25T01:10:56.579Z,7.09
2022-12-25T01:13:23.179Z,7.31
2022-12-25T01:15:49.956Z,7.25
2022-12-25T01:18:16.306Z,7.42
2022-12-25T01:20:42.704Z,6.78
2022-12-25T01:23:09.144Z,6.87
2022-12-25T01:25:36.839Z,6.76
2022-12-25T01:28:03.418Z,6.68
2022-12-25T01:30:29.815Z,6.59
2022-12-25T01:32:56.173Z,6.44
2022-12-25T01:35:22.630Z,6.66
2022-12-25T01:37:50.353Z,6.78
2022-12-25T01:40:16.842Z,6.63
2022-12-25T01:42:44.856Z,6.79
2022-12-25T01:45:31.848Z,7.16
2022-12-25T01:47:58.829Z,7.24
2022-12-25T01:50:25.443Z,6.97
2022-12-25T01:52:52.708Z,7.15
2022-12-25T01:55:19.584Z,6.86
2022-12-25T01:57:47.329Z,7.35
2022-12-25T02:00:14.459Z,7.25
2022-12-25T02:02:41.850Z,7.24
2022-12-25T02:05:14.155Z,7.10
2022-12-25T02:07:42.054Z,7.22
2022-12-25T02:10:10.154Z,6.94
2022-12-25T02:12:37.450Z,7.23
2022-12-25T02:15:08.692Z,7.03
2022-12-25T02:17:41.221Z,7.04
2022-12-25T02:20:40.464Z,6.94
2022-12-25T02:23:36.655Z,6.72
2022-12-25T02:26:16.399Z,7.09
2022-12-25T02:28:50.820Z,6.94
2022-12-25T02:31:20.215Z,6.79
2022-12-25T02:33:58.979Z,7.08
2022-12-25T02:36:32.254Z,7.31
2022-12-25T02:39:02.055Z,7.06
2022-12-25T02:41:33.224Z,7.03
2022-12-25T02:44:04.099Z,7.44
2022-12-25T02:46:32.443Z,7.23
2022-12-25T02:49:03.633Z,7.25
2022-12-25T02:51:34.503Z,7.33
2022-12-25T02:54:06.031Z,7.29
2022-12-25T02:56:34.974Z,7.63
2022-12-25T02:59:04.126Z,7.01
2022-12-25T03:01:32.849Z,7.13
2022-12-25T03:04:04.581Z,7.09
2022-12-25T03:06:32.782Z,7.06
2022-12-25T03:09:01.061Z,7.37
2022-12-25T03:11:28.163Z,7.54
2022-12-25T03:13:57.752Z,7.15
2022-12-25T03:16:25.513Z,7.38
2022-12-25T03:18:53.989Z,7.26
2022-12-25T03:21:20.460Z,7.44
2022-12-25T03:23:50.827Z,7.27
2022-12-25T03:26:17.862Z,6.75
2022-12-25T03:28:44.267Z,6.94
2022-12-25T03:31:16.823Z,7.10
2022-12-25T03:34:09.373Z,6.90
2022-12-25T03:36:47.704Z,6.98
2022-12-25T03:39:22.054Z,6.88
2022-12-25T03:41:52.797Z,7.01
2022-12-25T03:44:26.510Z,7.11
2022-12-25T03:46:59.244Z,6.67
2022-12-25T03:49:32.333Z,6.67
2022-12-25T03:52:01.861Z,6.53
2022-12-25T03:54:32.806Z,6.69
2022-12-25T03:56:59.830Z,6.94
2022-12-25T03:59:26.205Z,6.64
2022-12-25T04:01:52.761Z,6.49
2022-12-25T04:04:19.302Z,6.69
2022-12-25T04:06:47.118Z,6.85
2022-12-25T04:09:13.513Z,6.84
2022-12-25T04:11:39.881Z,6.98
2022-12-25T04:14:06.217Z,6.88
2022-12-25T04:16:32.634Z,6.88
2022-12-25T04:18:59.045Z,6.89
2022-12-25T04:21:25.704Z,6.80
2022-12-25T04:23:53.425Z,6.86
2022-12-25T04:26:19.836Z,6.70
2022-12-25T04:28:46.197Z,6.63
2022-12-25T04:31:12.637Z,6.76
2022-12-25T04:33:39.003Z,6.86
2022-12-25T04:36:06.717Z,6.81
2022-12-25T04:38:33.408Z,6.71
2022-12-25T04:41:02.353Z,6.87
2022-12-25T04:43:29.233Z,6.95
2022-12-25T04:45:57.242Z,6.94
2022-12-25T04:48:24.061Z,6.58
2022-12-25T04:50:50.884Z,7.08
2022-12-25T04:53:18.697Z,6.88
2022-12-25T04:55:45.206Z,7.06
2022-12-25T04:58:12.973Z,7.01
2022-12-25T05:00:39.432Z,7.36
2022-12-25T05:03:05.972Z,7.41
2022-12-25T05:05:32.380Z,7.62
2022-12-25T05:07:58.806Z,7.75
2022-12-25T05:10:25.173Z,7.23
2022-12-25T05:12:51.552Z,7.77
2022-12-25T05:15:19.762Z,7.80
2022-12-25T05:17:46.142Z,7.63
2022-12-25T05:20:12.620Z,8.05
2022-12-25T05:22:38.992Z,7.92
2022-12-25T05:25:06.212Z,7.29
2022-12-25T05:27:32.708Z,7.68
2022-12-25T05:29:59.097Z,8.07
2022-12-25T05:32:26.770Z,8.06
2022-12-25T05:34:53.100Z,8.02
2022-12-25T05:37:19.463Z,8.42
2022-12-25T05:39:45.825Z,8.08
2022-12-25T05:42:12.164Z,8.28
2022-12-25T05:44:38.551Z,8.01
2022-12-25T05:47:05.137Z,7.79
2022-12-25T05:49:32.828Z,7.87
2022-12-25T05:51:59.254Z,8.03
2022-12-25T05:54:25.637Z,8.18
2022-12-25T05:56:51.996Z,8.44
2022-12-25T05:59:18.519Z,8.15
2022-12-25T06:01:45.370Z,7.81
2022-12-25T06:04:12.972Z,8.01
2022-12-25T06:06:40.989Z,8.05
2022-12-25T06:09:07.341Z,8.13
2022-12-25T06:11:33.747Z,8.19
2022-12-25T06:14:00.165Z,8.25
2022-12-25T06:16:26.583Z,8.11
2022-12-25T06:18:52.973Z,8.27
2022-12-25T06:21:19.751Z,8.06
2022-12-25T06:23:47.768Z,8.15
2022-12-25T06:26:16.049Z,8.28
2022-12-25T06:28:42.495Z,7.99
2022-12-25T06:31:11.012Z,8.13
2022-12-25T06:33:38.246Z,7.91
2022-12-25T06:36:06.669Z,8.11
2022-12-25T06:38:33.010Z,8.28
2022-12-25T06:41:04.768Z,7.92
2022-12-25T06:43:34.060Z,8.46
2022-12-25T06:46:02.678Z,7.94
2022-12-25T06:48:29.136Z,8.12
2022-12-25T06:50:55.508Z,8.53
2022-12-25T06:53:21.893Z,8.27
2022-12-25T06:55:48.254Z,8.28
2022-12-25T06:58:16.331Z,8.06
2022-12-25T07:00:42.745Z,8.29
2022-12-25T07:03:09.423Z,7.87
2022-12-25T07:05:36.048Z,8.31
2022-12-25T07:08:02.424Z,7.92
2022-12-25T07:10:28.840Z,8.15
2022-12-25T07:12:55.219Z,8.13
2022-12-25T07:15:23.461Z,7.93
2022-12-25T07:17:49.837Z,7.68
2022-12-25T07:20:16.295Z,7.81
2022-12-25T07:22:42.647Z,8.06
2022-12-25T07:25:09.366Z,7.85
2022-12-25T07:27:36.002Z,8.17
2022-12-25T07:30:02.418Z,7.97
2022-12-25T07:32:31.235Z,7.60
2022-12-25T07:34:57.736Z,7.93
2022-12-25T07:37:24.247Z,8.18
2022-12-25T07:39:53.345Z,8.13
2022-12-25T07:42:24.889Z,8.03
2022-12-25T07:44:51.725Z,8.20
2022-12-25T07:47:18.067Z,8.09
2022-12-25T07:49:45.771Z,8.49
2022-12-25T07:52:12.136Z,8.19
2022-12-25T07:54:38.487Z,8.32
2022-12-25T07:57:04.848Z,7.91
2022-12-25T07:59:31.217Z,8.30
2022-12-25T08:01:57.722Z,8.50
2022-12-25T08:04:24.212Z,8.51
2022-12-25T08:06:51.892Z,8.33
2022-12-25T08:09:18.366Z,8.13
2022-12-25T08:11:45.747Z,8.23
2022-12-25T08:14:12.236Z,8.21
2022-12-25T08:16:38.801Z,8.17
2022-12-25T08:19:05.229Z,7.89
2022-12-25T08:21:31.585Z,8.11
2022-12-25T08:23:59.326Z,8.11
2022-12-25T08:26:25.787Z,8.04
2022-12-25T08:28:52.224Z,8.55
2022-12-25T08:31:20.647Z,8.21
2022-12-25T08:33:47.492Z,8.29
2022-12-25T08:36:14.369Z,8.36
2022-12-25T08:38:41.725Z,8.66
2022-12-25T08:41:10.112Z,9.09
2022-12-25T08:43:36.475Z,9.04
2022-12-25T08:46:03.460Z,8.94
2022-12-25T08:48:29.933Z,9.08
2022-12-25T08:50:56.542Z,9.22
2022-12-25T08:53:23.268Z,9.02
2022-12-25T08:55:56.277Z,9.42
2022-12-25T08:58:24.050Z,9.23
2022-12-25T09:00:50.398Z,8.81
2022-12-25T09:03:16.833Z,8.82
2022-12-25T09:05:43.205Z,8.53
2022-12-25T09:08:09.606Z,8.50
2022-12-25T09:10:37.017Z,9.02
2022-12-25T09:13:03.425Z,9.02
2022-12-25T09:15:31.311Z,9.16
2022-12-25T09:17:57.859Z,9.16
2022-12-25T09:20:24.565Z,8.99
2022-12-25T09:22:50.969Z,9.24
2022-12-25T09:25:17.520Z,9.42
2022-12-25T09:27:43.874Z,9.39
2022-12-25T09:30:11.131Z,8.81
2022-12-25T09:32:38.879Z,8.98
2022-12-25T09:35:06.036Z,9.33
2022-12-25T09:37:32.416Z,9.12
2022-12-25T09:39:58.785Z,8.98
2022-12-25T09:42:27.640Z,9.81
2022-12-25T09:44:57.548Z,9.51
2022-12-25T09:47:27.693Z,9.68
2022-12-25T09:50:01.405Z,9.62
2022-12-25T09:52:37.432Z,9.63
2022-12-25T09:55:14.746Z,9.79
2022-12-25T09:57:44.853Z,10.04
2022-12-25T10:00:15.536Z,10.21
2022-12-25T10:03:14.935Z,10.09
2022-12-25T10:05:58.813Z,9.74
2022-12-25T10:08:38.823Z,9.90
2022-12-25T10:11:24.159Z,9.86
2022-12-25T10:14:14.682Z,10.10
2022-12-25T10:16:49.604Z,9.54
2022-12-25T10:19:35.752Z,9.38
2022-12-25T10:22:10.874Z,9.57
2022-12-25T10:24:43.695Z,9.89
2022-12-25T10:27:15.686Z,9.72
2022-12-25T10:29:43.566Z,9.24
2022-12-25T10:32:10.442Z,9.99
2022-12-25T10:34:40.420Z,10.00
2022-12-25T10:37:10.246Z,9.86
2022-12-25T10:39:40.935Z,10.07
2022-12-25T10:42:26.752Z,9.92
2022-12-25T10:45:01.256Z,10.33
2022-12-25T10:47:31.977Z,10.33
2022-12-25T10:49:59.527Z,10.50
2022-12-25T10:52:28.741Z,10.48
2022-12-25T10:54:55.855Z,10.26
2022-12-25T10:57:23.684Z,10.02
2022-12-25T10:59:51.915Z,10.09
2022-12-25T11:02:24.683Z,10.80
2022-12-25T11:04:57.938Z,10.59
2022-12-25T11:07:26.980Z,10.31
2022-12-25T11:09:59.343Z,10.04
2022-12-25T11:12:31.625Z,9.57
2022-12-25T11:15:06.557Z,9.80
2022-12-25T11:17:33.112Z,9.96
2022-12-25T11:20:01.058Z,10.18
2022-12-25T11:22:28.754Z,10.34
2022-12-25T11:24:56.275Z,10.47
2022-12-25T11:27:26.200Z,10.79
2022-12-25T11:29:57.654Z,10.57
2022-12-25T11:32:29.349Z,10.37
2022-12-25T11:34:56.924Z,10.89
2022-12-25T11:37:32.575Z,10.89
2022-12-25T11:40:00.426Z,10.74
2022-12-25T11:42:30.343Z,11.25
2022-12-25T11:45:02.208Z,11.06
2022-12-25T11:47:34.782Z,11.12
2022-12-25T11:50:05.125Z,11.06
2022-12-25T11:52:36.318Z,10.93
2022-12-25T11:55:10.181Z,10.98
2022-12-25T11:57:38.986Z,10.97
2022-12-25T12:00:07.620Z,10.82
2022-12-25T12:02:38.962Z,10.70
2022-12-25T12:05:16.370Z,10.56
2022-12-25T12:07:52.408Z,11.06
2022-12-25T12:10:28.033Z,11.21
2022-12-25T12:13:01.019Z,11.05
2022-12-25T12:15:29.472Z,11.02
2022-12-25T12:18:07.101Z,11.08
2022-12-25T12:20:35.279Z,10.15
2022-12-25T12:23:04.814Z,10.72
2022-12-25T12:25:39.047Z,10.95
2022-12-25T12:28:06.007Z,10.94
2022-12-25T12:30:34.751Z,10.77
2022-12-25T12:33:03.818Z,10.73
2022-12-25T12:35:32.932Z,11.03
2022-12-25T12:38:02.205Z,10.88
2022-12-25T12:40:36.755Z,10.91
2022-12-25T12:43:04.888Z,10.55
2022-12-25T12:45:36.683Z,11.02
2022-12-25T12:48:14.483Z,10.36
2022-12-25T12:50:41.997Z,10.57
2022-12-25T12:53:28.054Z,10.42
2022-12-25T12:55:56.264Z,10.46
2022-12-25T12:58:29.780Z,10.84
2022-12-25T13:01:07.661Z,10.89
2022-12-25T13:03:44.976Z,10.48
2022-12-25T13:06:17.362Z,10.64
2022-12-25T13:09:01.505Z,10.97
2022-12-25T13:11:32.130Z,10.27
2022-12-25T13:14:01.732Z,10.48
2022-12-25T13:16:33.134Z,10.42
2022-12-25T13:19:04.492Z,10.06
2022-12-25T13:21:31.497Z,10.35
2022-12-25T13:23:59.842Z,10.22
2022-12-25T13:26:27.396Z,10.38
2022-12-25T13:28:55.533Z,10.37
2022-12-25T13:31:24.026Z,10.60
2022-12-25T13:33:56.970Z,10.47
2022-12-25T13:36:23.922Z,10.01
2022-12-25T13:38:52.123Z,10.28
2022-12-25T13:41:20.853Z,10.13
2022-12-25T13:43:48.727Z,10.61
2022-12-25T13:46:16.648Z,10.11
2022-12-25T13:48:43.241Z,10.01
2022-12-25T13:51:16.830Z,10.13
2022-12-25T13:53:43.931Z,9.92
2022-12-25T13:56:14.615Z,10.04
2022-12-25T13:58:41.345Z,9.95
2022-12-25T14:01:09.580Z,10.23
2022-12-25T14:03:41.493Z,10.09
2022-12-25T14:06:18.548Z,9.86
2022-12-25T14:08:45.935Z,10.18
2022-12-25T14:11:14.983Z,9.93
2022-12-25T14:13:43.980Z,9.85
2022-12-25T14:16:11.053Z,9.77
2022-12-25T14:18:49.630Z,9.89
2022-12-25T14:21:23.909Z,10.14
2022-12-25T14:23:50.967Z,10.23
2022-12-25T14:26:18.554Z,9.84
2022-12-25T14:28:48.403Z,9.85
2022-12-25T14:31:15.187Z,9.87
2022-12-25T14:33:43.279Z,10.00
2022-12-25T14:36:11.884Z,10.29
2022-12-25T14:38:38.437Z,9.81
2022-12-25T14:41:21.111Z,10.16
2022-12-25T14:43:54.991Z,10.15
2022-12-25T14:46:23.639Z,10.47
2022-12-25T14:49:00.325Z,10.61
2022-12-25T14:51:28.888Z,10.14
2022-12-25T14:53:56.737Z,9.78
2022-12-25T14:56:25.144Z,10.03
2022-12-25T14:58:53.504Z,9.86
2022-12-25T15:01:23.055Z,9.79
2022-12-25T15:03:49.765Z,10.03
2022-12-25T15:06:20.628Z,9.85
2022-12-25T15:08:56.210Z,9.88
2022-12-25T15:11:22.598Z,9.75
2022-12-25T15:13:49.062Z,9.45
2022-12-25T15:16:22.524Z,9.71
2022-12-25T15:18:50.441Z,9.98
2022-12-25T15:21:22.941Z,9.63
2022-12-25T15:23:49.284Z,9.56
2022-12-25T15:26:15.984Z,9.56
2022-12-25T15:28:42.414Z,10.07
2022-12-25T15:31:19.196Z,9.91
2022-12-25T15:33:46.798Z,9.70
2022-12-25T15:36:13.306Z,9.70
2022-12-25T15:38:41.086Z,10.32
2022-12-25T15:41:11.904Z,10.35
2022-12-25T15:43:40.730Z,10.52
2022-12-25T15:46:09.112Z,10.37
2022-12-25T15:48:35.506Z,9.98
2022-12-25T15:51:01.860Z,9.85
2022-12-25T15:53:28.230Z,9.75
2022-12-25T15:55:55.981Z,9.78
2022-12-25T15:58:22.373Z,9.98
2022-12-25T16:00:51.282Z,10.27
2022-12-25T16:03:17.734Z,10.01
2022-12-25T16:05:44.144Z,10.52
2022-12-25T16:08:10.511Z,9.84
2022-12-25T16:10:39.085Z,10.26
2022-12-25T16:13:08.172Z,10.24
2022-12-25T16:15:34.610Z,9.58
2022-12-25T16:18:01.031Z,9.84
2022-12-25T16:20:27.430Z,9.67
2022-12-25T16:22:53.780Z,10.17
2022-12-25T16:25:20.212Z,9.77
2022-12-25T16:27:46.812Z,9.97
2022-12-25T16:30:17.632Z,9.71
2022-12-25T16:32:48.049Z,9.72
2022-12-25T16:35:14.440Z,10.02
2022-12-25T16:37:40.805Z,9.87
2022-12-25T16:40:08.784Z,10.11
2022-12-25T16:42:35.503Z,9.43
2022-12-25T16:45:01.966Z,9.56
2022-12-25T16:47:29.802Z,9.80
2022-12-25T16:49:56.480Z,10.02
2022-12-25T16:52:22.838Z,9.95
2022-12-25T16:54:49.221Z,9.63
2022-12-25T16:57:15.621Z,9.61
2022-12-25T16:59:41.975Z,9.90
2022-12-25T17:02:13.822Z,9.86
2022-12-25T17:04:41.560Z,9.22
2022-12-25T17:07:07.933Z,9.61
2022-12-25T17:09:38.859Z,10.25
2022-12-25T17:12:09.357Z,9.90
2022-12-25T17:14:36.570Z,9.69
2022-12-25T17:17:02.939Z,9.93
2022-12-25T17:19:29.372Z,10.20
2022-12-25T17:21:57.275Z,10.10
2022-12-25T17:24:23.652Z,9.71
2022-12-25T17:26:50.001Z,10.16
2022-12-25T17:29:21.651Z,9.68
2022-12-25T17:31:48.310Z,10.12
2022-12-25T17:34:14.685Z,10.13
2022-12-25T17:36:41.130Z,9.84
2022-12-25T17:39:10.630Z,10.01
2022-12-25T17:41:37.018Z,10.07
2022-12-25T17:44:03.734Z,10.26
2022-12-25T17:46:30.658Z,10.42
2022-12-25T17:48:59.199Z,10.11
2022-12-25T17:51:27.915Z,10.47
2022-12-25T17:53:56.230Z,10.15
2022-12-25T17:56:24.839Z,10.66
2022-12-25T17:58:54.299Z,10.40
2022-12-25T18:01:22.063Z,10.18
2022-12-25T18:03:49.325Z,10.50
2022-12-25T18:06:18.141Z,10.01
2022-12-25T18:08:45.960Z,10.65
2022-12-25T18:11:14.881Z,10.91
2022-12-25T18:13:43.759Z,10.47
2022-12-25T18:16:11.190Z,10.41
2022-12-25T18:18:37.785Z,10.52
2022-12-25T18:21:06.012Z,10.42
2022-12-25T18:23:32.562Z,10.41
2022-12-25T18:26:01.111Z,10.65
2022-12-25T18:28:27.572Z,10.28
2022-12-25T18:30:55.289Z,10.62
2022-12-25T18:33:21.833Z,10.35
2022-12-25T18:35:48.598Z,10.90
2022-12-25T18:38:15.036Z,10.36
2022-12-25T18:40:42.516Z,10.35
2022-12-25T18:43:09.416Z,10.73
2022-12-25T18:45:36.061Z,10.66
2022-12-25T18:48:05.261Z,10.35
2022-12-25T18:50:35.602Z,10.85
2022-12-25T18:53:02.443Z,10.58
2022-12-25T18:55:29.093Z,10.38
2022-12-25T18:57:56.038Z,10.65
2022-12-25T19:00:23.324Z,10.64
2022-12-25T19:02:49.977Z,10.27
2022-12-25T19:05:18.031Z,10.11
2022-12-25T19:07:44.402Z,10.55
2022-12-25T19:10:10.777Z,10.74
2022-12-25T19:12:37.202Z,10.74
2022-12-25T19:15:04.358Z,10.69
2022-12-25T19:17:32.074Z,11.15
2022-12-25T19:19:58.876Z,10.69
2022-12-25T19:22:26.771Z,10.96
2022-12-25T19:24:53.130Z,10.91
2022-12-25T19:27:19.572Z,10.30
2022-12-25T19:29:45.980Z,10.50
2022-12-25T19:32:12.356Z,10.65
2022-12-25T19:34:38.760Z,10.26
2022-12-25T19:37:05.194Z,10.08
2022-12-25T19:39:33.073Z,10.75
2022-12-25T19:41:59.531Z,10.39
2022-12-25T19:44:25.910Z,10.53
2022-12-25T19:46:52.452Z,10.22
2022-12-25T19:49:18.861Z,10.81
2022-12-25T19:51:45.861Z,10.56
2022-12-25T19:54:13.786Z,10.49
2022-12-25T19:56:42.143Z,10.14
2022-12-25T19:59:08.911Z,10.72
2022-12-25T20:01:35.336Z,10.68
2022-12-25T20:04:02.009Z,11.26
2022-12-25T20:06:31.008Z,10.46
2022-12-25T20:09:00.780Z,10.77
2022-12-25T20:11:29.464Z,10.56
2022-12-25T20:13:57.716Z,10.47
2022-12-25T20:16:25.158Z,10.58
2022-12-25T20:18:52.451Z,10.92
2022-12-25T20:21:20.703Z,11.07
2022-12-25T20:23:48.697Z,11.21
2022-12-25T20:26:16.827Z,11.35
2022-12-25T20:28:43.753Z,11.30
2022-12-25T20:31:13.956Z,10.97
2022-12-25T20:33:40.446Z,11.21
2022-12-25T20:36:07.582Z,10.83
2022-12-25T20:38:34.246Z,11.06
2022-12-25T20:41:26.408Z,11.25
2022-12-25T20:43:49.033Z,11.26
2022-12-25T20:46:17.093Z,11.31
2022-12-25T20:48:44.122Z,10.46
2022-12-25T20:51:13.020Z,10.91
2022-12-25T20:53:40.102Z,10.95
2022-12-25T20:56:09.055Z,11.08
2022-12-25T20:58:35.878Z,10.87
2022-12-25T21:01:05.412Z,10.71
2022-12-25T21:03:33.523Z,11.11
2022-12-25T21:06:00.485Z,10.86
2022-12-25T21:08:26.973Z,10.82
2022-12-25T21:10:55.418Z,10.97
2022-12-25T21:13:23.825Z,10.95
2022-12-25T21:15:52.300Z,10.75
2022-12-25T21:18:20.188Z,10.93
2022-12-25T21:20:50.420Z,10.95
2022-12-25T21:23:17.616Z,10.46
2022-12-25T21:25:44.250Z,10.77
2022-12-25T21:28:11.148Z,11.32
2022-12-25T21:30:37.758Z,10.95
2022-12-25T21:33:04.300Z,10.86
2022-12-25T21:35:30.835Z,11.10
2022-12-25T21:37:58.574Z,11.51
2022-12-25T21:40:24.936Z,11.21
2022-12-25T21:42:51.761Z,11.27
2022-12-25T21:45:19.003Z,11.46
2022-12-25T21:48:02.366Z,11.32
2022-12-25T21:50:32.513Z,11.36
2022-12-25T21:53:04.208Z,11.53
2022-12-25T21:55:31.141Z,11.70
2022-12-25T21:57:57.494Z,11.84
2022-12-25T22:00:24.058Z,11.88
2022-12-25T22:02:50.564Z,11.77
2022-12-25T22:05:17.069Z,11.67
2022-12-25T22:07:43.423Z,11.35
2022-12-25T22:10:11.144Z,11.20
2022-12-25T22:12:37.540Z,11.51
2022-12-25T22:15:07.683Z,11.41
2022-12-25T22:17:36.233Z,11.80
2022-12-25T22:20:03.606Z,11.29
2022-12-25T22:22:31.418Z,11.51
2022-12-25T22:25:00.829Z,11.32
2022-12-25T22:27:31.829Z,11.17
2022-12-25T22:29:58.226Z,11.39
2022-12-25T22:32:24.851Z,11.24
2022-12-25T22:34:51.293Z,10.87
2022-12-25T22:37:18.762Z,11.27
2022-12-25T22:39:45.791Z,11.24
2022-12-25T22:42:12.962Z,11.24
2022-12-25T22:44:40.689Z,10.98
2022-12-25T22:47:07.166Z,11.49
2022-12-25T22:49:33.593Z,10.96
2022-12-25T22:52:00.002Z,11.27
2022-12-25T22:54:29.852Z,11.05
2022-12-25T22:56:57.120Z,11.81
2022-12-25T22:59:23.688Z,11.69
2022-12-25T23:01:51.559Z,11.61
2022-12-25T23:04:18.283Z,10.97
2022-12-25T23:06:45.403Z,11.38
2022-12-25T23:09:18.883Z,11.42
2022-12-25T23:11:48.754Z,11.22
2022-12-25T23:14:15.455Z,11.37
2022-12-25T23:16:41.862Z,11.60
2022-12-25T23:19:12.205Z,11.09
2022-12-25T23:21:39.584Z,11.67
2022-12-25T23:24:09.016Z,11.82
2022-12-25T23:26:35.370Z,11.99
2022-12-25T23:29:01.918Z,11.56
2022-12-25T23:31:30.648Z,11.01
2022-12-25T23:33:58.024Z,11.37
2022-12-25T23:36:25.846Z,11.12
2022-12-25T23:38:52.299Z,11.71
2022-12-25T23:41:18.750Z,11.54
2022-12-25T23:43:45.119Z,11.67
2022-12-25T23:46:11.551Z,11.26
2022-12-25T23:48:38.009Z,10.99
2022-12-25T23:51:05.660Z,10.75
2022-12-25T23:53:33.797Z,11.28
2022-12-25T23:56:00.526Z,11.13
2022-12-25T23:58:28.669Z,11.53
